Time;durP1;ratioP1;P1;durP2;ratioP2;P2;SDS_P1;SDS_P2;PMS_P1;PMS_P2;Temp;Humidity;BMP_temperature;BMP_pressure;BME280_temperature;BME280_humidity;BME280_pressure;Samples;Min_cycle;Max_cycle;Signal;HPM_P1;HPM_P2
2023/01/16 00:00:21;;;;;;;44.70;26.23;;;;;;;;;;4362565;32;317585;-89
2023/01/16 00:02:48;;;;;;;55.03;32.20;;;;;;;;;;4377379;32;329661;-90
2023/01/16 00:05:15;;;;;;;53.80;32.67;;;;;;;;;;4365620;32;317575;-89
2023/01/16 00:07:42;;;;;;;45.93;28.73;;;;;;;;;;4374799;32;317530;-90
2023/01/16 00:10:10;;;;;;;52.07;29.40;;;;;;;;;;4365165;32;317783;-89
2023/01/16 00:12:40;;;;;;;50.53;30.23;;;;;;;;;;4373240;32;317401;-89
2023/01/16 00:15:08;;;;;;;51.47;30.33;;;;;;;;;;4363996;32;317543;-90
2023/01/16 00:17:36;;;;;;;50.60;31.23;;;;;;;;;;4373827;32;317568;-90
2023/01/16 00:20:03;;;;;;;47.93;29.03;;;;;;;;;;4364146;32;317517;-90
2023/01/16 00:22:30;;;;;;;58.80;34.43;;;;;;;;;;4372181;32;317446;-89
2023/01/16 00:25:01;;;;;;;60.60;36.33;;;;;;;;;;4376956;32;317477;-89
2023/01/16 00:27:28;;;;;;;77.43;42.40;;;;;;;;;;4362005;32;417513;-89
2023/01/16 00:29:56;;;;;;;75.87;40.20;;;;;;;;;;4374708;32;317911;-90
2023/01/16 00:32:23;;;;;;;63.70;38.23;;;;;;;;;;4364494;32;317560;-89
2023/01/16 00:34:50;;;;;;;69.37;38.43;;;;;;;;;;4374576;32;346996;-91
2023/01/16 00:37:17;;;;;;;72.90;40.27;;;;;;;;;;4358132;32;317603;-90
2023/01/16 00:39:44;;;;;;;72.77;42.87;;;;;;;;;;4378616;32;317231;-88
2023/01/16 00:42:11;;;;;;;77.63;45.10;;;;;;;;;;4363834;32;341067;-89
2023/01/16 00:44:39;;;;;;;77.00;44.53;;;;;;;;;;4374908;32;317543;-89
2023/01/16 00:47:10;;;;;;;81.57;46.77;;;;;;;;;;4363721;32;317343;-89
2023/01/16 00:49:38;;;;;;;85.63;46.57;;;;;;;;;;4375109;32;317364;-89
2023/01/16 00:52:05;;;;;;;96.50;54.07;;;;;;;;;;4366059;32;317580;-89
2023/01/16 00:54:32;;;;;;;110.27;60.33;;;;;;;;;;4375527;32;317352;-89
2023/01/16 00:56:59;;;;;;;109.20;59.77;;;;;;;;;;4375173;32;318402;-89
2023/01/16 00:59:26;;;;;;;98.50;56.47;;;;;;;;;;4365515;32;318849;-90
2023/01/16 01:01:53;;;;;;;110.23;59.60;;;;;;;;;;4374436;32;317605;-90
2023/01/16 01:04:22;;;;;;;103.30;58.30;;;;;;;;;;4354452;32;318731;-90
2023/01/16 01:06:54;;;;;;;105.80;61.10;;;;;;;;;;4374285;32;318843;-89
2023/01/16 01:09:21;;;;;;;110.57;59.77;;;;;;;;;;4362673;32;318484;-90
2023/01/16 01:11:49;;;;;;;106.73;57.53;;;;;;;;;;4372056;32;318503;-89
2023/01/16 01:14:19;;;;;;;97.97;57.57;;;;;;;;;;4362934;32;318511;-90
2023/01/16 01:16:46;;;;;;;110.47;60.70;;;;;;;;;;4371124;32;317532;-90
2023/01/16 01:19:14;;;;;;;106.83;61.13;;;;;;;;;;4363400;32;318534;-89
2023/01/16 01:21:43;;;;;;;108.03;58.27;;;;;;;;;;4374045;32;318517;-89
2023/01/16 01:24:10;;;;;;;105.87;58.63;;;;;;;;;;4377343;32;317215;-90
2023/01/16 01:26:37;;;;;;;122.53;64.53;;;;;;;;;;4388128;32;318284;-90
2023/01/16 01:29:05;;;;;;;126.10;62.60;;;;;;;;;;4369232;32;318548;-89
2023/01/16 01:31:32;;;;;;;111.40;59.53;;;;;;;;;;4376217;32;318625;-90
2023/01/16 01:33:59;;;;;;;111.13;59.30;;;;;;;;;;4373000;32;318699;-90
2023/01/16 01:36:26;;;;;;;107.40;60.53;;;;;;;;;;4353828;32;318500;-90
2023/01/16 01:38:58;;;;;;;110.70;57.60;;;;;;;;;;4372619;32;318530;-89
2023/01/16 01:41:26;;;;;;;96.90;54.30;;;;;;;;;;4363588;32;318639;-90
2023/01/16 01:43:55;;;;;;;78.63;45.47;;;;;;;;;;4380150;32;317269;-90
2023/01/16 01:46:26;;;;;;;71.57;44.07;;;;;;;;;;4377730;32;317320;-89
2023/01/16 01:48:59;;;;;;;74.40;45.43;;;;;;;;;;4363083;32;317492;-89
2023/01/16 01:51:30;;;;;;;72.80;41.93;;;;;;;;;;4361967;32;317511;-90
2023/01/16 01:54:02;;;;;;;89.20;49.23;;;;;;;;;;4373838;32;317592;-89
2023/01/16 01:56:33;;;;;;;88.63;51.47;;;;;;;;;;4355382;32;419831;-89
2023/01/16 01:59:03;;;;;;;179.33;83.53;;;;;;;;;;4380866;32;317649;-90
2023/01/16 02:01:31;;;;;;;211.67;100.30;;;;;;;;;;4359981;32;417602;-89
2023/01/16 02:04:03;;;;;;;125.13;67.40;;;;;;;;;;4373050;32;328146;-90
2023/01/16 02:06:36;;;;;;;130.37;70.13;;;;;;;;;;4359056;32;421141;-89
2023/01/16 02:09:05;;;;;;;150.17;76.43;;;;;;;;;;4362663;32;318401;-90
2023/01/16 02:11:36;;;;;;;92.33;50.17;;;;;;;;;;4372984;32;318625;-89
2023/01/16 02:14:06;;;;;;;88.50;45.87;;;;;;;;;;4361463;32;391555;-90
2023/01/16 02:19:34;;;;;;;89.70;51.23;;;;;;;;;;4324139;32;317726;-90
2023/01/16 02:22:34;;;;;;;106.30;54.87;;;;;;;;;;4372727;32;317618;-90
2023/01/16 02:25:32;;;;;;;74.43;44.00;;;;;;;;;;4365531;32;418840;-90
2023/01/16 02:28:12;;;;;;;85.47;46.93;;;;;;;;;;4369753;32;417323;-90
2023/01/16 02:31:19;;;;;;;106.27;59.03;;;;;;;;;;4356435;32;417856;-90
2023/01/16 02:33:57;;;;;;;81.07;46.70;;;;;;;;;;4356200;32;422040;-90
2023/01/16 02:36:35;;;;;;;85.07;44.63;;;;;;;;;;4360891;32;317492;-89
2023/01/16 02:39:10;;;;;;;76.03;43.17;;;;;;;;;;4360413;32;317403;-89
2023/01/16 02:41:45;;;;;;;73.70;42.80;;;;;;;;;;4359888;32;317681;-90
2023/01/16 02:44:26;;;;;;;67.37;38.43;;;;;;;;;;4367767;32;317449;-88
2023/01/16 02:46:59;;;;;;;68.80;39.43;;;;;;;;;;4381159;32;317198;-90
2023/01/16 02:49:36;;;;;;;55.33;31.60;;;;;;;;;;4371129;32;316559;-90
2023/01/16 02:52:13;;;;;;;44.80;26.93;;;;;;;;;;4361966;32;337975;-90
2023/01/16 02:54:49;;;;;;;44.73;28.87;;;;;;;;;;4373036;32;317535;-91
2023/01/16 02:57:19;;;;;;;44.10;26.83;;;;;;;;;;4360378;32;317619;-89
2023/01/16 02:59:48;;;;;;;50.20;30.37;;;;;;;;;;4371849;32;317476;-90
2023/01/16 03:02:15;;;;;;;59.40;34.13;;;;;;;;;;4360735;32;317669;-89
2023/01/16 03:04:59;;;;;;;64.07;35.83;;;;;;;;;;4367170;32;353152;-89
2023/01/16 03:07:56;;;;;;;63.80;35.97;;;;;;;;;;4368247;32;317510;-89
2023/01/16 03:10:37;;;;;;;61.73;37.23;;;;;;;;;;4361920;32;317494;-89
2023/01/16 03:13:16;;;;;;;67.97;41.57;;;;;;;;;;4367848;32;317443;-91
2023/01/16 03:16:00;;;;;;;60.20;38.03;;;;;;;;;;4374415;32;357229;-90
2023/01/16 03:18:36;;;;;;;62.07;37.70;;;;;;;;;;4364804;32;390457;-90
2023/01/16 03:21:11;;;;;;;68.53;39.23;;;;;;;;;;4366610;32;317475;-89
2023/01/16 03:23:49;;;;;;;62.70;37.67;;;;;;;;;;4362815;32;317389;-90
2023/01/16 03:26:25;;;;;;;58.07;35.73;;;;;;;;;;4366114;32;317356;-90
2023/01/16 03:29:03;;;;;;;65.23;36.33;;;;;;;;;;4377798;32;317513;-90
2023/01/16 03:31:38;;;;;;;57.43;34.67;;;;;;;;;;4362301;32;419663;-90
2023/01/16 03:34:14;;;;;;;58.63;36.43;;;;;;;;;;4366683;32;317399;-89
2023/01/16 03:36:50;;;;;;;73.03;41.37;;;;;;;;;;4373115;32;317594;-91
2023/01/16 03:39:21;;;;;;;75.23;43.17;;;;;;;;;;4360288;32;317549;-89
2023/01/16 03:41:51;;;;;;;84.17;50.20;;;;;;;;;;4373265;32;319611;-90
2023/01/16 03:44:25;;;;;;;54.10;32.77;;;;;;;;;;4365390;32;317490;-89
2023/01/16 03:46:52;;;;;;;68.67;36.53;;;;;;;;;;4374916;32;318013;-90
2023/01/16 03:49:21;;;;;;;58.10;36.30;;;;;;;;;;4365570;32;317812;-90
2023/01/16 03:51:55;;;;;;;57.27;35.53;;;;;;;;;;4379650;32;317535;-90
2023/01/16 03:54:32;;;;;;;61.40;34.17;;;;;;;;;;4366652;32;317571;-89
2023/01/16 03:57:07;;;;;;;52.97;32.63;;;;;;;;;;4374910;32;317563;-90
2023/01/16 03:59:35;;;;;;;54.37;33.10;;;;;;;;;;4364758;32;420605;-88
2023/01/16 04:02:10;;;;;;;57.23;32.70;;;;;;;;;;4366094;32;317456;-89
2023/01/16 04:04:43;;;;;;;63.30;34.10;;;;;;;;;;4376044;32;317515;-90
2023/01/16 04:07:15;;;;;;;85.63;48.83;;;;;;;;;;4366222;32;317581;-91
2023/01/16 04:09:48;;;;;;;104.03;54.97;;;;;;;;;;4375292;32;317427;-90
2023/01/16 04:12:20;;;;;;;107.70;58.63;;;;;;;;;;4364266;32;318648;-89
2023/01/16 04:14:50;;;;;;;110.47;58.37;;;;;;;;;;4376830;32;318584;-90
2023/01/16 04:17:20;;;;;;;114.30;63.13;;;;;;;;;;4359787;32;330022;-90
2023/01/16 04:19:47;;;;;;;119.07;67.73;;;;;;;;;;4385349;32;328336;-90
2023/01/16 04:22:24;;;;;;;135.67;71.97;;;;;;;;;;4369907;32;348650;-90
2023/01/16 04:24:55;;;;;;;136.67;73.03;;;;;;;;;;4371661;32;337877;-90
2023/01/16 04:27:23;;;;;;;145.63;77.53;;;;;;;;;;4366253;32;318610;-89
2023/01/16 04:29:50;;;;;;;120.00;67.43;;;;;;;;;;4374774;32;318121;-90
2023/01/16 04:32:17;;;;;;;126.00;68.27;;;;;;;;;;4362169;32;318665;-90
2023/01/16 04:34:45;;;;;;;120.43;69.40;;;;;;;;;;4376866;32;321128;-90
2023/01/16 04:37:14;;;;;;;146.43;77.43;;;;;;;;;;4365382;32;318970;-90
2023/01/16 04:39:44;;;;;;;135.67;75.93;;;;;;;;;;4373896;32;318666;-89
2023/01/16 04:42:13;;;;;;;136.27;77.30;;;;;;;;;;4361750;32;318480;-90
2023/01/16 04:44:40;;;;;;;154.27;79.47;;;;;;;;;;4374557;32;318434;-90
2023/01/16 04:47:07;;;;;;;146.30;79.70;;;;;;;;;;4363216;32;318535;-90
2023/01/16 04:49:34;;;;;;;132.37;74.37;;;;;;;;;;4373150;32;318671;-89
2023/01/16 04:52:01;;;;;;;108.47;62.07;;;;;;;;;;4371133;32;318793;-90
2023/01/16 04:54:28;;;;;;;129.07;70.73;;;;;;;;;;4361685;32;390597;-89
2023/01/16 04:56:56;;;;;;;136.37;69.07;;;;;;;;;;4373283;32;318412;-90
2023/01/16 04:59:23;;;;;;;204.17;102.00;;;;;;;;;;4365078;32;318539;-90
2023/01/16 05:01:50;;;;;;;226.57;114.80;;;;;;;;;;4368173;32;319700;-90
2023/01/16 05:04:18;;;;;;;225.63;112.37;;;;;;;;;;4363374;32;319610;-90
2023/01/16 05:06:51;;;;;;;191.20;103.37;;;;;;;;;;4359652;32;319987;-90
2023/01/16 05:09:19;;;;;;;157.60;83.87;;;;;;;;;;4361362;32;320070;-90
2023/01/16 05:11:46;;;;;;;176.17;92.47;;;;;;;;;;4374747;32;318512;-90
2023/01/16 05:14:17;;;;;;;181.30;91.17;;;;;;;;;;4364973;32;318260;-89
2023/01/16 05:16:44;;;;;;;187.17;88.30;;;;;;;;;;4374122;32;318668;-89
2023/01/16 05:19:12;;;;;;;186.30;85.87;;;;;;;;;;4370909;32;318603;-90
2023/01/16 05:21:39;;;;;;;195.13;90.37;;;;;;;;;;4388213;32;318873;-90
2023/01/16 05:24:07;;;;;;;197.50;91.77;;;;;;;;;;4373920;32;318347;-90
2023/01/16 05:26:35;;;;;;;185.13;87.53;;;;;;;;;;4376833;32;318539;-90
2023/01/16 05:29:02;;;;;;;175.50;83.53;;;;;;;;;;4351234;32;318741;-90
2023/01/16 05:31:31;;;;;;;175.23;84.47;;;;;;;;;;4374381;32;318625;-90
2023/01/16 05:33:58;;;;;;;189.80;89.30;;;;;;;;;;4357697;32;318676;-90
2023/01/16 05:36:28;;;;;;;200.27;89.73;;;;;;;;;;4350572;32;318466;-90
2023/01/16 05:38:56;;;;;;;187.47;92.67;;;;;;;;;;4383729;32;318587;-90
2023/01/16 05:41:28;;;;;;;193.90;94.73;;;;;;;;;;4355486;32;352596;-90
2023/01/16 05:43:58;;;;;;;187.43;93.67;;;;;;;;;;4373543;32;318638;-90
2023/01/16 05:46:26;;;;;;;172.50;90.23;;;;;;;;;;4364730;32;318509;-91
2023/01/16 05:48:57;;;;;;;156.30;93.73;;;;;;;;;;4372111;32;318577;-90
2023/01/16 05:51:25;;;;;;;164.07;88.87;;;;;;;;;;4364098;32;318737;-90
2023/01/16 05:53:54;;;;;;;130.83;73.17;;;;;;;;;;4373508;32;318801;-90
2023/01/16 05:56:23;;;;;;;144.47;74.70;;;;;;;;;;4362212;32;318501;-90
2023/01/16 05:58:50;;;;;;;131.40;68.17;;;;;;;;;;4372080;32;318719;-90
2023/01/16 06:01:17;;;;;;;109.80;60.03;;;;;;;;;;4361514;32;318489;-90
2023/01/16 06:03:44;;;;;;;127.80;61.00;;;;;;;;;;4373682;32;318931;-90
2023/01/16 06:06:13;;;;;;;133.23;64.00;;;;;;;;;;4362128;32;318459;-90
2023/01/16 06:08:40;;;;;;;159.13;73.57;;;;;;;;;;4363892;32;318570;-90
2023/01/16 06:11:07;;;;;;;165.13;77.03;;;;;;;;;;4369238;32;318573;-91
2023/01/16 06:13:36;;;;;;;156.63;75.17;;;;;;;;;;4374583;32;318820;-91
2023/01/16 06:16:03;;;;;;;163.17;80.13;;;;;;;;;;4362161;32;318661;-90
2023/01/16 06:18:30;;;;;;;156.47;79.40;;;;;;;;;;4374126;32;318290;-90
2023/01/16 06:20:57;;;;;;;184.47;88.87;;;;;;;;;;4371698;32;318592;-90
2023/01/16 06:23:26;;;;;;;164.47;83.37;;;;;;;;;;4362477;32;319040;-90
2023/01/16 06:25:53;;;;;;;179.80;86.50;;;;;;;;;;4371804;32;318543;-90
2023/01/16 06:28:21;;;;;;;169.80;84.03;;;;;;;;;;4343632;32;318571;-91
2023/01/16 06:30:53;;;;;;;182.73;88.37;;;;;;;;;;4376648;32;318577;-91
2023/01/16 06:36:02;;;;;;;177.83;90.90;;;;;;;;;;4375597;32;318530;-91
2023/01/16 06:38:31;;;;;;;199.37;97.07;;;;;;;;;;4337428;32;421286;-90
2023/01/16 06:40:59;;;;;;;209.30;111.17;;;;;;;;;;4373266;32;318694;-91
2023/01/16 06:43:28;;;;;;;195.63;104.33;;;;;;;;;;4361177;32;359672;-90
2023/01/16 06:45:56;;;;;;;192.57;106.10;;;;;;;;;;4367216;32;319850;-90
2023/01/16 06:48:31;;;;;;;181.70;97.33;;;;;;;;;;4353905;32;320167;-90
2023/01/16 06:50:59;;;;;;;187.87;101.67;;;;;;;;;;4372598;32;318594;-90
2023/01/16 06:53:26;;;;;;;164.57;98.60;;;;;;;;;;4362376;32;319594;-91
2023/01/16 06:55:57;;;;;;;172.23;93.63;;;;;;;;;;4375452;32;318894;-91
2023/01/16 06:58:28;;;;;;;174.17;98.70;;;;;;;;;;4363038;32;318654;-91
2023/01/16 07:01:01;;;;;;;172.63;96.17;;;;;;;;;;4385741;32;318351;-90
2023/01/16 07:03:33;;;;;;;178.27;102.77;;;;;;;;;;4374588;32;398905;-91
2023/01/16 07:06:02;;;;;;;177.70;103.03;;;;;;;;;;4389024;32;318458;-90
2023/01/16 07:08:34;;;;;;;198.60;103.77;;;;;;;;;;4370255;32;390273;-90
2023/01/16 07:11:02;;;;;;;234.53;127.97;;;;;;;;;;4387575;32;359145;-89
2023/01/16 07:13:29;;;;;;;252.93;137.83;;;;;;;;;;4392597;27;417737;-81
2023/01/16 07:24:21;;;;;;;166.37;94.00;;;;;;;;;;4405276;32;319426;-81
2023/01/16 07:26:53;;;;;;;154.80;89.47;;;;;;;;;;4416802;32;318894;-82
2023/01/16 07:29:21;;;;;;;150.77;88.70;;;;;;;;;;4406321;32;319363;-80
2023/01/16 07:31:48;;;;;;;113.80;71.43;;;;;;;;;;4415379;32;319368;-80
2023/01/16 07:34:14;;;;;;;124.43;71.80;;;;;;;;;;4406193;32;319516;-80
2023/01/16 07:36:41;;;;;;;114.63;62.77;;;;;;;;;;4416690;32;319279;-81
2023/01/16 07:39:08;;;;;;;104.00;60.57;;;;;;;;;;4406600;32;319796;-80
2023/01/16 07:41:35;;;;;;;120.50;69.43;;;;;;;;;;4415203;32;318919;-81
2023/01/16 07:44:03;;;;;;;123.53;70.07;;;;;;;;;;4415713;32;340719;-80
2023/01/16 07:46:30;;;;;;;128.47;74.00;;;;;;;;;;4402206;32;418505;-80
2023/01/16 07:48:56;;;;;;;116.67;64.33;;;;;;;;;;4416221;32;319376;-79
2023/01/16 07:51:23;;;;;;;103.93;60.30;;;;;;;;;;4406263;32;319455;-81
2023/01/16 07:53:51;;;;;;;89.30;53.50;;;;;;;;;;4416382;32;319562;-80
2023/01/16 07:56:18;;;;;;;117.67;66.07;;;;;;;;;;4403530;32;357933;-81
2023/01/16 07:58:44;;;;;;;118.80;67.50;;;;;;;;;;4417554;32;319325;-79
2023/01/16 08:01:12;;;;;;;125.40;70.37;;;;;;;;;;4408765;32;319591;-79
2023/01/16 08:03:39;;;;;;;162.20;94.67;;;;;;;;;;4419420;32;319556;-81
2023/01/16 08:06:07;;;;;;;108.13;66.63;;;;;;;;;;4408804;32;319143;-80
2023/01/16 08:08:34;;;;;;;104.57;62.83;;;;;;;;;;4417687;32;319192;-81
2023/01/16 08:11:35;;;;;;;133.40;71.00;;;;;;;;;;4419342;32;319446;-81
2023/01/16 08:13:50;;;;;;;137.53;73.70;;;;;;;;;;4407074;32;389886;-81
2023/01/16 08:16:19;;;;;;;132.47;75.80;;;;;;;;;;4408025;32;318513;-81
2023/01/16 08:18:48;;;;;;;147.70;80.87;;;;;;;;;;4418973;32;319026;-80
2023/01/16 08:21:16;;;;;;;114.60;63.87;;;;;;;;;;4407680;32;319545;-81
2023/01/16 08:23:42;;;;;;;98.50;61.03;;;;;;;;;;4419385;32;318836;-81
2023/01/16 08:26:09;;;;;;;105.20;64.73;;;;;;;;;;4409164;32;318593;-82
2023/01/16 08:28:36;;;;;;;115.83;70.00;;;;;;;;;;4418352;32;318684;-82
2023/01/16 08:31:08;;;;;;;120.27;71.77;;;;;;;;;;4408833;32;319382;-82
2023/01/16 08:33:37;;;;;;;128.43;79.47;;;;;;;;;;4418542;32;319247;-81
2023/01/16 08:36:04;;;;;;;191.17;96.93;;;;;;;;;;4405894;32;348285;-82
2023/01/16 08:38:33;;;;;;;133.37;83.50;;;;;;;;;;4417599;32;318883;-81
2023/01/16 08:41:00;;;;;;;128.27;78.67;;;;;;;;;;4417268;32;318559;-82
2023/01/16 08:52:00;;;;;;;166.53;92.23;;;;;;;;;;4413123;32;318845;-81
2023/01/16 08:54:27;;;;;;;168.33;91.87;;;;;;;;;;4404404;32;422473;-81
2023/01/16 08:56:54;;;;;;;134.30;82.73;;;;;;;;;;4416834;32;319477;-80
2023/01/16 08:59:21;;;;;;;215.93;106.33;;;;;;;;;;4406811;32;346567;-81
2023/01/16 09:01:48;;;;;;;186.23;107.80;;;;;;;;;;4417291;32;320331;-80
2023/01/16 09:04:16;;;;;;;194.17;108.60;;;;;;;;;;4408163;32;320251;-81
2023/01/16 09:06:43;;;;;;;229.47;117.20;;;;;;;;;;4417315;32;343842;-81
2023/01/16 09:09:09;;;;;;;211.20;110.07;;;;;;;;;;4407876;32;320414;-81
2023/01/16 09:14:21;;;;;;;236.23;121.67;;;;;;;;;;4408067;32;320240;-82
2023/01/16 09:16:49;;;;;;;195.27;103.53;;;;;;;;;;4417829;32;319546;-81
2023/01/16 09:19:18;;;;;;;288.20;133.17;;;;;;;;;;4408359;32;320321;-82
2023/01/16 09:21:44;;;;;;;197.63;106.93;;;;;;;;;;4418107;32;320527;-82
2023/01/16 09:24:11;;;;;;;203.10;114.10;;;;;;;;;;4408106;32;319474;-82
2023/01/16 09:26:38;;;;;;;282.23;139.30;;;;;;;;;;4419944;32;320796;-82
2023/01/16 09:29:05;;;;;;;249.43;127.67;;;;;;;;;;4407516;32;353457;-83
2023/01/16 09:31:31;;;;;;;210.13;117.60;;;;;;;;;;4421610;32;319530;-83
2023/01/16 09:33:58;;;;;;;164.80;102.80;;;;;;;;;;4418295;32;319849;-82
2023/01/16 09:36:26;;;;;;;549.67;195.50;;;;;;;;;;4406275;32;321070;-82
2023/01/16 09:38:53;;;;;;;158.00;90.07;;;;;;;;;;4417493;32;320213;-82
2023/01/16 09:44:02;;;;;;;175.27;101.67;;;;;;;;;;4415715;32;319653;-82
2023/01/16 09:46:32;;;;;;;145.40;91.60;;;;;;;;;;4403928;32;419944;-82
2023/01/16 09:49:03;;;;;;;158.10;94.50;;;;;;;;;;4417535;32;318426;-83
2023/01/16 09:51:36;;;;;;;179.93;104.80;;;;;;;;;;4404183;32;418443;-82
2023/01/16 09:59:42;;;;;;;137.77;87.27;;;;;;;;;;4405525;32;389723;-82
2023/01/16 10:02:17;;;;;;;130.57;85.43;;;;;;;;;;4407350;32;319392;-82
2023/01/16 10:04:45;;;;;;;128.97;80.97;;;;;;;;;;4416412;32;319524;-82
2023/01/16 10:07:39;;;;;;;149.37;86.10;;;;;;;;;;4407429;32;318798;-82
2023/01/16 10:10:20;;;;;;;133.03;80.73;;;;;;;;;;4406693;32;335141;-82
2023/01/16 10:12:55;;;;;;;134.87;80.93;;;;;;;;;;4415444;32;349114;-82
2023/01/16 10:15:30;;;;;;;144.10;87.17;;;;;;;;;;4407247;32;319301;-82
2023/01/16 10:18:14;;;;;;;153.63;95.27;;;;;;;;;;4415696;32;319500;-83
2023/01/16 10:20:57;;;;;;;134.50;81.80;;;;;;;;;;4402732;32;420686;-82
2023/01/16 10:23:37;;;;;;;130.67;78.67;;;;;;;;;;4406199;32;318719;-82
2023/01/16 10:26:08;;;;;;;106.57;66.70;;;;;;;;;;4405166;32;319818;-83
2023/01/16 10:28:51;;;;;;;102.13;61.63;;;;;;;;;;4416325;32;319654;-82
2023/01/16 10:31:23;;;;;;;86.07;53.80;;;;;;;;;;4406296;32;318594;-82
2023/01/16 10:33:55;;;;;;;79.97;50.90;;;;;;;;;;4417440;32;318283;-82
2023/01/16 10:36:26;;;;;;;89.70;53.37;;;;;;;;;;4407623;32;318326;-81
2023/01/16 10:38:56;;;;;;;77.17;46.67;;;;;;;;;;4417228;32;317903;-81
2023/01/16 10:49:55;;;;;;;61.57;36.67;;;;;;;;;;4417256;32;317493;-82
2023/01/16 10:52:24;;;;;;;50.27;32.57;;;;;;;;;;4405428;32;317451;-81
2023/01/16 10:54:53;;;;;;;47.83;30.13;;;;;;;;;;4415498;32;317448;-82
2023/01/16 10:57:21;;;;;;;82.63;47.43;;;;;;;;;;4405377;32;321333;-82
2023/01/16 10:59:51;;;;;;;147.13;77.93;;;;;;;;;;4415028;32;318824;-82
2023/01/16 11:02:23;;;;;;;142.63;76.20;;;;;;;;;;4405028;32;319226;-82
2023/01/16 11:04:50;;;;;;;63.00;40.33;;;;;;;;;;4415228;32;319471;-82
2023/01/16 11:07:20;;;;;;;69.57;42.20;;;;;;;;;;4404095;32;353871;-82
2023/01/16 11:09:47;;;;;;;89.47;51.40;;;;;;;;;;4414949;32;317739;-82
2023/01/16 11:20:49;;;;;;;70.27;40.37;;;;;;;;;;4404176;32;388977;-83
2023/01/16 11:23:20;;;;;;;64.40;38.87;;;;;;;;;;4405079;32;318056;-81
2023/01/16 11:25:49;;;;;;;115.67;63.50;;;;;;;;;;4415171;32;318543;-83
2023/01/16 11:28:22;;;;;;;124.53;68.07;;;;;;;;;;4406054;32;318582;-83
2023/01/16 11:30:52;;;;;;;112.13;60.53;;;;;;;;;;4415905;32;318812;-81
2023/01/16 11:33:22;;;;;;;56.07;36.90;;;;;;;;;;4408323;32;318602;-81
2023/01/16 11:35:54;;;;;;;65.40;37.97;;;;;;;;;;4419383;32;317761;-82
2023/01/16 11:38:25;;;;;;;54.63;33.83;;;;;;;;;;4409752;32;317467;-81
2023/01/16 11:40:55;;;;;;;67.83;38.57;;;;;;;;;;4420203;32;317596;-82
2023/01/16 11:46:37;;;;;;;141.63;67.83;;;;;;;;;;4408034;32;318189;-82
2023/01/16 11:49:06;;;;;;;44.87;30.30;;;;;;;;;;4407523;32;318730;-82
2023/01/16 11:51:37;;;;;;;52.37;36.07;;;;;;;;;;4419080;32;318250;-82
2023/01/16 11:54:12;;;;;;;69.87;36.83;;;;;;;;;;4408925;32;318367;-83
2023/01/16 11:56:50;;;;;;;37.63;25.40;;;;;;;;;;4419859;32;317440;-83
2023/01/16 11:59:39;;;;;;;44.60;26.30;;;;;;;;;;4409141;32;322434;-84
2023/01/16 12:02:24;;;;;;;35.57;25.50;;;;;;;;;;4409836;32;318384;-83
2023/01/16 12:08:03;;;;;;;57.70;32.53;;;;;;;;;;4410623;32;388803;-83
2023/01/16 12:10:40;;;;;;;54.27;28.37;;;;;;;;;;4406331;32;418297;-83
2023/01/16 12:16:08;;;;;;;42.80;28.37;;;;;;;;;;4417279;32;317524;-83
2023/01/16 12:18:46;;;;;;;49.20;30.67;;;;;;;;;;4406426;32;418538;-84
2023/01/16 12:21:28;;;;;;;69.67;36.70;;;;;;;;;;4408111;32;318577;-84
2023/01/16 12:24:10;;;;;;;44.97;30.40;;;;;;;;;;4418484;32;317486;-83
2023/01/16 12:26:46;;;;;;;52.67;33.73;;;;;;;;;;4405386;32;417883;-83
2023/01/16 12:29:25;;;;;;;64.63;35.00;;;;;;;;;;4409396;32;318327;-82
2023/01/16 12:32:06;;;;;;;164.23;78.00;;;;;;;;;;4419530;32;318093;-81
2023/01/16 12:34:49;;;;;;;69.10;43.00;;;;;;;;;;4405424;32;420186;-83
2023/01/16 12:37:30;;;;;;;18.33;13.97;;;;;;;;;;4409653;32;318172;-82
2023/01/16 12:40:13;;;;;;;33.10;14.47;;;;;;;;;;4418918;32;317579;-83
2023/01/16 12:45:45;;;;;;;49.63;28.10;;;;;;;;;;4399398;32;387893;-83
2023/01/16 12:48:25;;;;;;;30.47;15.33;;;;;;;;;;4409588;32;318621;-82
2023/01/16 12:51:06;;;;;;;14.57;7.37;;;;;;;;;;4418311;32;318374;-82
2023/01/16 12:54:01;;;;;;;8.80;5.07;;;;;;;;;;4405744;32;417107;-83
2023/01/16 12:56:41;;;;;;;18.87;10.80;;;;;;;;;;4405802;32;416361;-83
2023/01/16 12:59:16;;;;;;;11.20;7.90;;;;;;;;;;4409473;32;318283;-83
2023/01/16 13:01:46;;;;;;;29.83;18.57;;;;;;;;;;4419309;32;317221;-82
2023/01/16 13:04:18;;;;;;;30.20;17.20;;;;;;;;;;4409233;32;317893;-83
2023/01/16 13:06:49;;;;;;;14.57;9.50;;;;;;;;;;4418014;32;318254;-82
2023/01/16 13:09:23;;;;;;;8.30;6.00;;;;;;;;;;4408174;32;316567;-83
2023/01/16 13:14:50;;;;;;;7.77;6.10;;;;;;;;;;4405915;32;386862;-82
2023/01/16 13:17:22;;;;;;;27.73;12.57;;;;;;;;;;4408614;32;316595;-83
2023/01/16 13:19:53;;;;;;;13.90;8.10;;;;;;;;;;4419038;32;317561;-83
2023/01/16 13:22:25;;;;;;;13.20;8.83;;;;;;;;;;4407960;32;316415;-83
2023/01/16 13:24:56;;;;;;;10.83;7.07;;;;;;;;;;4419096;32;317162;-83
2023/01/16 13:27:33;;;;;;;22.43;11.97;;;;;;;;;;4407960;32;317345;-83
2023/01/16 13:30:05;;;;;;;7.20;5.70;;;;;;;;;;4418791;32;317676;-83
2023/01/16 13:32:35;;;;;;;8.67;6.80;;;;;;;;;;4406263;32;415061;-82
2023/01/16 13:35:08;;;;;;;7.20;5.87;;;;;;;;;;4419000;32;315439;-82
2023/01/16 13:37:54;;;;;;;18.17;9.60;;;;;;;;;;4405229;32;415316;-81
2023/01/16 13:41:03;;;;;;;23.47;13.83;;;;;;;;;;4407723;32;317292;-83
2023/01/16 13:46:20;;;;;;;19.90;9.23;;;;;;;;;;4407673;32;317498;-82
2023/01/16 13:48:52;;;;;;;22.43;13.93;;;;;;;;;;4418725;32;316963;-82
2023/01/16 13:51:23;;;;;;;8.83;6.70;;;;;;;;;;4408716;32;317744;-82
2023/01/16 13:53:52;;;;;;;13.07;8.43;;;;;;;;;;4417212;32;315604;-81
2023/01/16 13:56:22;;;;;;;16.73;12.00;;;;;;;;;;4407359;32;317260;-81
2023/01/16 13:58:55;;;;;;;13.20;6.90;;;;;;;;;;4418334;32;317516;-82
2023/01/16 14:01:34;;;;;;;7.90;6.10;;;;;;;;;;4408034;32;335353;-82
2023/01/16 14:04:31;;;;;;;10.07;8.70;;;;;;;;;;4418318;32;316276;-82
2023/01/16 14:10:17;;;;;;;7.13;5.33;;;;;;;;;;4406475;32;387757;-82
2023/01/16 14:13:00;;;;;;;10.30;6.20;;;;;;;;;;4358014;32;416135;-82
2023/01/16 14:18:37;;;;;;;13.83;6.50;;;;;;;;;;4406268;32;387992;-82
2023/01/16 14:21:05;;;;;;;10.63;4.73;;;;;;;;;;4407039;32;316549;-83
2023/01/16 14:26:36;;;;;;;5.63;5.07;;;;;;;;;;4405842;32;315428;-83
2023/01/16 14:29:10;;;;;;;8.63;5.77;;;;;;;;;;4407038;32;316379;-84
2023/01/16 14:31:40;;;;;;;7.40;4.93;;;;;;;;;;4418260;32;316448;-83
2023/01/16 14:34:17;;;;;;;7.23;5.47;;;;;;;;;;4407417;32;316074;-83
2023/01/16 14:36:46;;;;;;;14.50;5.27;;;;;;;;;;4416909;32;316259;-82
2023/01/16 14:39:31;;;;;;;13.23;5.90;;;;;;;;;;4406916;32;316864;-83
2023/01/16 14:56:25;;;;;;;9.27;5.53;;;;;;;;;;4406644;32;317185;-84
2023/01/16 14:58:58;;;;;;;7.77;5.53;;;;;;;;;;4416688;32;316178;-82
2023/01/16 15:04:14;;;;;;;25.90;6.70;;;;;;;;;;4407876;32;315402;-84
2023/01/16 15:06:45;;;;;;;7.17;5.23;;;;;;;;;;4416177;32;322481;-82
2023/01/16 15:09:16;;;;;;;6.20;5.13;;;;;;;;;;4405509;32;316169;-82
2023/01/16 15:11:51;;;;;;;7.57;5.10;;;;;;;;;;4416504;32;316452;-82
2023/01/16 15:14:33;;;;;;;10.23;6.03;;;;;;;;;;4407579;32;316267;-82
2023/01/16 15:22:45;;;;;;;7.47;5.73;;;;;;;;;;4405863;32;387732;-82
2023/01/16 15:25:24;;;;;;;11.77;7.70;;;;;;;;;;4407564;32;316096;-82
2023/01/16 15:27:59;;;;;;;11.47;7.70;;;;;;;;;;4417763;32;316396;-82
2023/01/16 15:30:26;;;;;;;8.37;6.27;;;;;;;;;;4407617;32;317294;-81
2023/01/16 15:32:55;;;;;;;10.63;6.23;;;;;;;;;;4416520;32;316274;-81
2023/01/16 15:35:23;;;;;;;8.80;5.63;;;;;;;;;;4407288;32;317349;-82
2023/01/16 15:37:52;;;;;;;10.83;6.67;;;;;;;;;;4417710;32;315496;-82
2023/01/16 15:40:26;;;;;;;9.33;6.90;;;;;;;;;;4407391;32;317443;-82
2023/01/16 15:48:43;;;;;;;11.70;6.93;;;;;;;;;;4404493;32;387454;-82
2023/01/16 15:51:15;;;;;;;11.63;6.63;;;;;;;;;;4407744;32;317187;-82
2023/01/16 15:53:46;;;;;;;9.87;6.37;;;;;;;;;;4417985;32;317167;-82
2023/01/16 15:56:19;;;;;;;8.77;6.03;;;;;;;;;;4407516;32;316407;-81
2023/01/16 15:58:48;;;;;;;9.50;6.77;;;;;;;;;;4417524;32;316187;-81
2023/01/16 16:01:15;;;;;;;11.80;7.10;;;;;;;;;;4407143;32;316286;-82
2023/01/16 16:03:45;;;;;;;7.73;5.30;;;;;;;;;;4415869;32;325899;-82
2023/01/16 16:06:13;;;;;;;7.33;5.70;;;;;;;;;;4407978;32;316162;-82
2023/01/16 16:08:44;;;;;;;13.63;8.10;;;;;;;;;;4417366;32;316674;-82
2023/01/16 16:17:54;;;;;;;8.70;6.87;;;;;;;;;;4415977;32;317427;-81